Time;durP1;ratioP1;P1;durP2;ratioP2;P2;SDS_P1;SDS_P2;PMS_P1;PMS_P2;Temp;Humidity;BMP_temperature;BMP_pressure;BME280_temperature;BME280_humidity;BME280_pressure;Samples;Min_cycle;Max_cycle;Signal;HPM_P1;HPM_P2
2021/04/23 00:01:08;;;;;;;3.92;1.15;;;;;;;11.46;57.40;93610.59;5070935;28;20025;-43
2021/04/23 00:03:39;;;;;;;0.57;0.57;;;;;;;11.47;58.21;93609.31;5071021;28;20017;-42
2021/04/23 00:06:33;;;;;;;0.95;0.95;;;;;;;11.42;59.27;93613.72;5069479;28;20074;-43
2021/04/23 00:09:18;;;;;;;0.30;0.30;;;;;;;11.41;58.52;93603.22;5070589;28;20021;-41
2021/04/23 00:11:53;;;;;;;2.70;1.95;;;;;;;11.17;59.70;93610.00;5070239;28;20579;-42
2021/04/23 00:14:21;;;;;;;0.35;0.35;;;;;;;11.28;59.71;93609.63;5070560;28;20047;-42
2021/04/23 00:16:47;;;;;;;0.40;0.40;;;;;;;11.30;59.94;93604.28;5070387;28;20028;-43
2021/04/23 00:19:18;;;;;;;1.00;0.75;;;;;;;11.25;58.08;93599.69;5070474;28;20021;-42
2021/04/23 00:21:44;;;;;;;0.90;0.90;;;;;;;11.40;57.46;93608.00;5070413;28;20035;-43
2021/04/23 00:24:10;;;;;;;2.63;2.17;;;;;;;11.38;57.29;93607.09;5070698;28;20025;-41
2021/04/23 00:26:36;;;;;;;0.60;0.60;;;;;;;11.30;58.22;93598.75;5058889;28;20025;-44
2021/04/23 00:29:02;;;;;;;0.57;0.57;;;;;;;11.03;58.61;93600.34;5050133;28;20048;-42
2021/04/23 00:31:27;;;;;;;1.00;0.95;;;;;;;11.14;58.96;93602.78;5069458;28;20505;-41
2021/04/23 00:33:53;;;;;;;2.53;0.57;;;;;;;11.21;58.73;93596.56;5070552;28;20111;-43
2021/04/23 00:36:18;;;;;;;0.75;0.75;;;;;;;11.11;59.16;93605.91;5070284;28;20413;-41
2021/04/23 00:38:44;;;;;;;0.28;0.28;;;;;;;11.21;58.70;93599.31;5070472;28;20491;-41
2021/04/23 00:41:21;;;;;;;0.65;0.65;;;;;;;11.14;58.90;93591.72;5070099;28;20031;-42
2021/04/23 00:43:58;;;;;;;1.48;1.38;;;;;;;11.21;59.47;93607.59;5070371;28;20192;-42
2021/04/23 00:46:33;;;;;;;0.22;0.22;;;;;;;11.11;59.71;93601.13;5070232;28;20512;-42
2021/04/23 00:49:00;;;;;;;0.40;0.40;;;;;;;10.99;59.63;93599.25;5070342;28;20024;-42
2021/04/23 00:51:36;;;;;;;0.20;0.20;;;;;;;10.77;60.65;93603.41;5069164;28;20024;-42
2021/04/23 00:54:03;;;;;;;0.20;0.20;;;;;;;10.68;60.83;93610.16;5070119;28;20135;-41
2021/04/23 00:56:31;;;;;;;0.70;0.70;;;;;;;10.90;61.22;93610.81;5070326;28;20405;-43
2021/04/23 00:58:58;;;;;;;0.40;0.40;;;;;;;11.02;59.80;93604.41;5069907;28;20032;-43
2021/04/23 01:01:33;;;;;;;0.20;0.20;;;;;;;10.97;59.70;93593.53;5074202;28;20416;-42
2021/04/23 01:03:59;;;;;;;0.47;0.47;;;;;;;11.11;59.28;93611.44;5074172;28;20031;-41
2021/04/23 01:06:29;;;;;;;0.30;0.30;;;;;;;10.84;61.16;93607.47;5074350;28;20483;-42
2021/04/23 01:08:57;;;;;;;0.30;0.30;;;;;;;10.71;62.50;93602.06;5074270;28;20115;-42
2021/04/23 01:11:25;;;;;;;0.65;0.65;;;;;;;10.62;62.62;93598.56;5073997;28;20095;-43
2021/04/23 01:13:50;;;;;;;0.57;0.40;;;;;;;10.68;62.56;93604.66;5074101;28;20482;-42
2021/04/23 01:16:22;;;;;;;0.43;0.43;;;;;;;10.66;62.85;93604.47;5073854;28;20115;-42
2021/04/23 01:18:48;;;;;;;1.42;0.75;;;;;;;10.72;63.18;93607.03;5073773;28;20024;-42
2021/04/23 01:21:25;;;;;;;0.40;0.40;;;;;;;10.78;63.76;93602.13;5074003;28;20081;-45
2021/04/23 01:23:53;;;;;;;0.55;0.55;;;;;;;10.69;63.12;93591.59;5074106;28;20055;-42
2021/04/23 01:26:21;;;;;;;0.35;0.35;;;;;;;10.68;62.82;93599.13;5065763;28;20021;-42
2021/04/23 01:28:49;;;;;;;0.50;0.50;;;;;;;10.70;63.32;93601.34;5053489;28;20474;-42
2021/04/23 01:31:16;;;;;;;0.90;0.90;;;;;;;10.75;63.26;93603.22;5054004;28;20115;-41
2021/04/23 01:33:45;;;;;;;0.73;0.47;;;;;;;10.71;62.72;93602.81;5053495;28;20135;-41
2021/04/23 01:36:12;;;;;;;0.40;0.40;;;;;;;10.64;62.15;93589.72;5053900;28;20025;-45
2021/04/23 01:38:39;;;;;;;2.05;0.65;;;;;;;10.69;62.11;93608.16;5053520;28;20036;-42
2021/04/23 01:41:05;;;;;;;2.30;2.10;;;;;;;10.86;61.94;93619.47;5053594;28;20098;-41
2021/04/23 01:43:31;;;;;;;1.52;1.02;;;;;;;10.97;61.50;93618.38;5053444;28;20025;-41
2021/04/23 01:45:57;;;;;;;1.25;1.10;;;;;;;10.90;61.91;93619.84;5053618;28;20161;-43
2021/04/23 01:48:23;;;;;;;0.90;0.90;;;;;;;10.85;62.26;93617.25;5053324;28;20510;-41
2021/04/23 01:50:49;;;;;;;2.05;0.73;;;;;;;10.85;62.68;93623.50;5053491;28;20018;-41
2021/04/23 01:53:15;;;;;;;0.10;0.10;;;;;;;10.45;63.62;93623.13;5053070;28;20464;-41
2021/04/23 01:55:43;;;;;;;1.25;1.13;;;;;;;10.54;64.26;93621.88;5053476;28;20101;-41
2021/04/23 01:58:09;;;;;;;0.45;0.45;;;;;;;10.49;64.28;93615.25;5053376;28;20028;-41
2021/04/23 02:00:37;;;;;;;0.68;0.68;;;;;;;10.71;63.58;93622.16;5052950;28;20029;-41
2021/04/23 02:03:06;;;;;;;2.35;1.65;;;;;;;10.80;63.59;93631.94;5053281;28;20406;-43
2021/04/23 02:05:32;;;;;;;1.85;0.57;;;;;;;10.78;63.92;93623.47;5053392;28;20029;-43
2021/04/23 02:07:58;;;;;;;0.35;0.35;;;;;;;10.90;64.13;93632.91;5053245;28;20051;-42
2021/04/23 02:10:27;;;;;;;0.30;0.30;;;;;;;10.73;64.76;93629.88;5052960;28;20017;-42
2021/04/23 02:12:52;;;;;;;1.10;1.10;;;;;;;10.31;66.16;93637.59;5052901;28;20379;-41
2021/04/23 02:15:20;;;;;;;2.67;0.60;;;;;;;10.26;67.03;93639.22;5051638;28;20027;-42
2021/04/23 02:17:46;;;;;;;0.50;0.50;;;;;;;10.22;67.42;93638.78;5052764;28;20021;-41
2021/04/23 02:20:18;;;;;;;1.55;1.17;;;;;;;10.39;66.97;93644.63;5052960;28;20036;-43
2021/04/23 02:22:46;;;;;;;1.42;1.33;;;;;;;10.38;66.98;93636.88;5061629;28;20382;-41
2021/04/23 02:25:14;;;;;;;2.30;2.20;;;;;;;10.15;67.76;93617.44;5072741;28;20082;-43
2021/04/23 02:27:39;;;;;;;0.45;0.45;;;;;;;10.22;68.13;93640.84;5052136;28;20537;-42
2021/04/23 02:30:11;;;;;;;0.50;0.50;;;;;;;10.21;69.29;93653.88;5052806;28;20032;-42
2021/04/23 02:32:37;;;;;;;3.50;2.40;;;;;;;10.26;68.90;93657.78;5052806;28;20104;-41
2021/04/23 02:35:09;;;;;;;1.85;1.00;;;;;;;10.44;68.19;93663.03;5052674;28;20108;-43
2021/04/23 02:37:35;;;;;;;4.95;2.05;;;;;;;10.24;69.13;93650.06;5052707;28;20028;-41
2021/04/23 02:40:02;;;;;;;2.20;1.48;;;;;;;10.38;68.74;93640.38;5052668;28;20460;-41
2021/04/23 02:42:27;;;;;;;1.48;1.33;;;;;;;10.27;69.28;93629.63;5052330;28;20025;-42
2021/04/23 02:44:56;;;;;;;1.02;1.00;;;;;;;9.94;70.70;93633.22;5052294;28;20028;-42
2021/04/23 02:47:22;;;;;;;5.25;0.55;;;;;;;10.07;71.07;93637.94;5052531;28;20021;-42
2021/04/23 02:49:47;;;;;;;0.68;0.68;;;;;;;10.14;70.34;93643.53;5052430;28;20098;-42
2021/04/23 02:52:13;;;;;;;1.02;0.73;;;;;;;10.18;70.21;93632.88;5052182;28;20512;-41
2021/04/23 02:54:39;;;;;;;0.30;0.30;;;;;;;10.16;71.53;93635.44;5052360;28;20017;-42
2021/04/23 02:57:04;;;;;;;0.65;0.65;;;;;;;9.93;71.17;93623.50;5052318;28;20032;-42
2021/04/23 02:59:30;;;;;;;1.17;1.17;;;;;;;9.93;71.46;93654.56;5051999;28;20025;-42
2021/04/23 03:01:56;;;;;;;0.77;0.77;;;;;;;9.89;72.59;93636.88;5052171;28;20037;-43
2021/04/23 03:04:22;;;;;;;0.85;0.75;;;;;;;9.99;71.50;93659.94;5050863;28;20568;-42
2021/04/23 03:06:47;;;;;;;0.32;0.32;;;;;;;10.19;70.27;93656.44;5052036;28;20040;-45
2021/04/23 03:09:13;;;;;;;1.17;0.95;;;;;;;10.30;70.53;93658.16;5051824;28;20025;-41
2021/04/23 03:11:40;;;;;;;2.13;1.92;;;;;;;10.33;69.51;93662.63;5051753;28;20021;-42
2021/04/23 03:14:05;;;;;;;1.77;1.67;;;;;;;9.88;71.86;93660.22;5051837;28;20445;-42
2021/04/23 03:16:31;;;;;;;0.30;0.30;;;;;;;10.01;72.51;93662.88;5052013;28;20038;-41
2021/04/23 03:18:57;;;;;;;0.50;0.50;;;;;;;10.16;72.12;93662.28;5060306;28;20039;-42
2021/04/23 03:21:26;;;;;;;1.60;1.50;;;;;;;10.25;71.10;93670.84;5071538;28;20029;-41
2021/04/23 03:23:52;;;;;;;0.20;0.20;;;;;;;10.28;71.23;93669.00;5070996;28;20044;-41
2021/04/23 03:26:19;;;;;;;0.43;0.43;;;;;;;10.20;71.79;93663.44;5062374;28;20025;-41
2021/04/23 03:28:45;;;;;;;0.22;0.22;;;;;;;9.80;73.88;93673.19;5051291;28;20145;-41
2021/04/23 03:31:11;;;;;;;0.30;0.30;;;;;;;9.99;73.19;93675.75;5051430;28;20107;-44
2021/04/23 03:33:38;;;;;;;0.43;0.43;;;;;;;10.11;73.11;93683.25;5051640;28;20056;-41
2021/04/23 03:36:05;;;;;;;0.30;0.30;;;;;;;10.10;73.27;93678.22;5051553;28;20450;-41
2021/04/23 03:38:34;;;;;;;0.35;0.35;;;;;;;9.97;74.32;93681.81;5051544;28;20029;-41
2021/04/23 03:41:02;;;;;;;0.57;0.50;;;;;;;10.11;73.94;93683.25;5051382;28;20029;-42
2021/04/23 03:43:28;;;;;;;0.82;0.82;;;;;;;9.81;74.55;93674.69;5051417;28;20083;-43
2021/04/23 03:45:53;;;;;;;0.30;0.30;;;;;;;10.00;74.88;93691.78;5051128;28;20751;-43
2021/04/23 03:48:20;;;;;;;0.20;0.20;;;;;;;10.10;74.84;93692.00;5050945;28;20029;-40
2021/04/23 03:50:47;;;;;;;0.60;0.60;;;;;;;10.09;74.47;93688.50;5051254;28;20025;-42
2021/04/23 03:53:14;;;;;;;0.38;0.38;;;;;;;10.26;73.64;93688.88;5051016;28;20028;-42
2021/04/23 03:55:43;;;;;;;0.20;0.20;;;;;;;10.27;73.61;93686.84;5051197;28;20049;-42
2021/04/23 03:58:08;;;;;;;1.48;1.38;;;;;;;10.34;73.51;93686.16;5051170;28;20025;-42
2021/04/23 04:00:38;;;;;;;2.08;1.85;;;;;;;10.34;74.13;93686.16;5050743;28;20044;-41
2021/04/23 04:03:04;;;;;;;;;;;;;;;10.37;73.62;93693.38;5051212;28;20041;-41
2021/04/23 04:05:29;;;;;;;1.05;1.05;;;;;;;10.38;73.50;93687.31;5051253;28;19914;-42
2021/04/23 04:07:56;;;;;;;1.63;1.05;;;;;;;10.44;73.80;93700.94;5050686;28;20037;-42
2021/04/23 04:10:21;;;;;;;0.40;0.40;;;;;;;10.56;73.59;93702.16;5050820;28;20013;-44
2021/04/23 04:12:47;;;;;;;0.70;0.70;;;;;;;10.30;73.06;93674.72;5050522;28;20086;-42
2021/04/23 04:15:14;;;;;;;0.52;0.52;;;;;;;10.23;73.87;93689.94;5059443;28;20661;-41
2021/04/23 04:17:39;;;;;;;0.80;0.80;;;;;;;10.51;73.41;93712.06;5070586;28;20107;-41
2021/04/23 04:20:08;;;;;;;1.75;1.65;;;;;;;10.41;74.06;93711.06;5070380;28;20103;-41
2021/04/23 04:22:34;;;;;;;0.55;0.55;;;;;;;10.41;73.57;93718.59;5070822;28;20025;-42
2021/04/23 04:24:59;;;;;;;0.20;0.20;;;;;;;10.21;73.82;93706.31;5070376;28;20025;-43
2021/04/23 04:27:25;;;;;;;0.40;0.40;;;;;;;10.29;74.02;93720.91;5052144;28;20028;-42
2021/04/23 04:29:50;;;;;;;1.10;0.52;;;;;;;10.33;73.72;93715.06;5050400;28;20493;-42
2021/04/23 04:32:17;;;;;;;0.30;0.30;;;;;;;10.42;73.39;93718.06;5050637;28;20021;-42
2021/04/23 04:34:45;;;;;;;1.67;1.30;;;;;;;10.55;72.57;93704.16;5049508;28;20021;-41
2021/04/23 04:37:11;;;;;;;0.55;0.55;;;;;;;10.51;73.28;93714.06;5050535;28;20078;-43
2021/04/23 04:39:37;;;;;;;0.52;0.52;;;;;;;10.44;73.72;93715.50;5050531;28;20025;-41
2021/04/23 04:42:03;;;;;;;0.30;0.30;;;;;;;10.38;73.69;93714.16;5050445;28;20111;-41
2021/04/23 04:44:29;;;;;;;0.50;0.50;;;;;;;10.32;74.03;93711.56;5050214;28;20108;-42
2021/04/23 04:46:55;;;;;;;0.98;0.90;;;;;;;10.34;73.27;93720.03;5050454;28;20454;-41
2021/04/23 04:49:20;;;;;;;0.40;0.40;;;;;;;10.43;73.87;93713.28;5050386;28;20040;-43
2021/04/23 04:51:45;;;;;;;0.20;0.20;;;;;;;10.53;73.02;93708.75;5050130;28;20024;-41
2021/04/23 04:54:11;;;;;;;0.40;0.40;;;;;;;10.41;74.57;93724.88;5049899;28;20017;-42
2021/04/23 04:56:36;;;;;;;1.23;1.13;;;;;;;10.54;73.51;93732.31;5050030;28;20029;-41
2021/04/23 04:59:02;;;;;;;0.68;0.68;;;;;;;10.59;73.12;93723.88;5050078;28;20056;-41
2021/04/23 05:01:28;;;;;;;0.20;0.20;;;;;;;10.63;73.08;93718.03;5050194;28;20029;-42
2021/04/23 05:03:53;;;;;;;0.63;0.63;;;;;;;10.75;72.48;93727.47;5050030;28;20025;-42
2021/04/23 05:06:19;;;;;;;1.65;0.70;;;;;;;10.87;72.00;93725.88;5049935;28;20025;-44
2021/04/23 05:08:45;;;;;;;0.30;0.30;;;;;;;10.97;72.21;93723.38;5049890;28;20021;-43
2021/04/23 05:11:11;;;;;;;0.50;0.38;;;;;;;11.10;71.35;93731.53;5056727;28;20456;-43
2021/04/23 05:13:37;;;;;;;0.50;0.50;;;;;;;11.31;70.44;93729.41;5069936;28;20032;-44
2021/04/23 05:16:03;;;;;;;0.75;0.75;;;;;;;11.44;70.07;93737.56;5070244;28;20078;-41
2021/04/23 05:18:28;;;;;;;0.17;0.17;;;;;;;11.51;70.16;93733.38;5070079;28;20024;-42
2021/04/23 05:20:54;;;;;;;0.30;0.30;;;;;;;11.53;70.19;93736.31;5070079;28;20101;-41
2021/04/23 05:23:19;;;;;;;0.40;0.40;;;;;;;11.67;69.14;93724.59;5069806;28;20025;-43
2021/04/23 05:25:45;;;;;;;0.75;0.75;;;;;;;11.71;69.07;93738.06;5065674;28;20104;-44
2021/04/23 05:28:10;;;;;;;0.52;0.43;;;;;;;11.66;67.85;93734.16;5049750;28;20561;-41
2021/04/23 05:30:38;;;;;;;0.30;0.30;;;;;;;11.74;68.26;93734.94;5050049;28;20501;-42
2021/04/23 05:33:06;;;;;;;0.38;0.38;;;;;;;11.62;67.72;93708.88;5049951;28;20029;-43
2021/04/23 05:35:32;;;;;;;0.20;0.20;;;;;;;11.76;67.59;93743.41;5049714;28;20025;-41
2021/04/23 05:37:58;;;;;;;0.63;0.40;;;;;;;11.86;67.18;93746.41;5048457;28;20021;-41
2021/04/23 05:40:26;;;;;;;0.20;0.20;;;;;;;11.84;67.06;93746.97;5049861;28;20029;-42
2021/04/23 05:42:52;;;;;;;0.45;0.45;;;;;;;11.98;67.32;93753.06;5049637;28;20020;-41
2021/04/23 05:45:18;;;;;;;0.45;0.45;;;;;;;11.85;66.81;93734.59;5050009;28;20025;-42
2021/04/23 05:47:44;;;;;;;1.63;1.25;;;;;;;12.02;66.85;93759.72;5053796;28;20120;-41
2021/04/23 05:50:11;;;;;;;0.43;0.43;;;;;;;12.04;66.40;93757.13;5053697;28;20096;-43
2021/04/23 05:52:37;;;;;;;0.30;0.30;;;;;;;12.08;66.57;93762.31;5053584;28;20017;-43
2021/04/23 05:55:04;;;;;;;0.22;0.22;;;;;;;12.18;66.39;93774.31;5053213;28;20039;-41
2021/04/23 05:57:29;;;;;;;0.20;0.20;;;;;;;12.20;66.41;93757.91;5052023;28;20029;-42
2021/04/23 05:59:55;;;;;;;0.45;0.45;;;;;;;12.12;66.74;93768.22;5053212;28;20102;-41
2021/04/23 06:02:20;;;;;;;0.40;0.40;;;;;;;12.23;66.91;93775.44;5053032;28;20013;-42
2021/04/23 06:04:46;;;;;;;0.43;0.43;;;;;;;12.34;66.01;93777.84;5053312;28;20104;-43
2021/04/23 06:07:11;;;;;;;0.22;0.22;;;;;;;12.40;66.07;93787.47;5056194;28;20141;-43
2021/04/23 06:09:36;;;;;;;0.22;0.22;;;;;;;12.56;65.22;93774.38;5072886;28;20068;-42
2021/04/23 06:12:02;;;;;;;0.38;0.38;;;;;;;12.56;65.07;93777.84;5073301;28;20070;-42
2021/04/23 06:14:28;;;;;;;1.25;1.15;;;;;;;12.42;65.28;93775.81;5072825;28;20078;-42
2021/04/23 06:16:54;;;;;;;0.70;0.70;;;;;;;12.37;64.96;93779.50;5073094;28;20017;-43
2021/04/23 06:19:20;;;;;;;0.47;0.47;;;;;;;12.34;65.29;93784.13;5072762;28;20031;-43
2021/04/23 06:21:46;;;;;;;0.50;0.50;;;;;;;12.36;65.10;93783.56;5072703;28;20036;-42
2021/04/23 06:24:12;;;;;;;2.05;1.95;;;;;;;12.42;65.05;93789.66;5072702;28;20028;-47
2021/04/23 06:26:37;;;;;;;1.20;1.20;;;;;;;12.41;65.33;93794.47;5061188;28;20033;-41
2021/04/23 06:29:03;;;;;;;0.80;0.80;;;;;;;12.66;64.71;93783.59;5052426;28;20053;-41
2021/04/23 06:31:28;;;;;;;0.20;0.20;;;;;;;12.68;64.76;93783.78;5051361;28;20119;-42
2021/04/23 06:33:54;;;;;;;0.65;0.65;;;;;;;12.89;63.30;93787.06;5052675;28;20013;-42
2021/04/23 06:36:20;;;;;;;0.85;0.85;;;;;;;12.90;63.68;93783.78;5052377;28;20029;-45
2021/04/23 06:38:46;;;;;;;1.75;1.65;;;;;;;12.89;63.69;93782.28;5052592;28;20092;-41
2021/04/23 16:06:46;;;;;;;1.55;1.52;;;;;;;13.77;52.46;93751.94;5054998;28;886710;-44
2021/04/23 16:09:12;;;;;;;2.67;2.17;;;;;;;13.74;51.79;93748.22;5078625;28;20037;-43
2021/04/23 16:11:37;;;;;;;2.35;2.15;;;;;;;13.78;51.65;93747.84;5081190;28;20514;-44
2021/04/23 16:14:06;;;;;;;2.45;2.25;;;;;;;13.64;52.18;93759.19;5082426;28;20082;-42
2021/04/23 16:16:31;;;;;;;2.88;2.65;;;;;;;13.67;52.43;93755.28;5078043;28;20028;-42
2021/04/23 16:18:57;;;;;;;2.40;1.95;;;;;;;13.56;53.58;93738.31;5081670;28;20016;-43
2021/04/23 16:21:23;;;;;;;0.95;0.95;;;;;;;13.66;53.78;93758.63;5064523;28;20024;-42
2021/04/23 16:23:49;;;;;;;1.95;1.20;;;;;;;13.74;53.91;93756.56;5080137;28;20059;-45
2021/04/23 16:26:15;;;;;;;1.17;1.13;;;;;;;13.80;54.39;93759.09;5081965;28;20044;-42
2021/04/23 16:28:40;;;;;;;1.35;1.25;;;;;;;13.84;53.35;93765.03;5081668;28;20507;-43
2021/04/23 16:31:06;;;;;;;1.85;1.15;;;;;;;13.69;54.47;93763.03;5080372;28;20023;-44
2021/04/23 16:33:31;;;;;;;0.75;0.75;;;;;;;13.68;54.48;93769.91;5082071;28;20389;-43
2021/04/23 16:35:57;;;;;;;2.53;2.35;;;;;;;13.54;55.10;93761.06;5081253;28;20044;-42
2021/04/23 16:38:23;;;;;;;3.85;2.92;;;;;;;13.63;54.83;93768.06;5080417;28;20031;-44
2021/04/23 16:40:48;;;;;;;2.20;1.83;;;;;;;13.62;56.04;93769.38;5079655;28;20079;-45
2021/04/23 16:43:14;;;;;;;2.90;2.70;;;;;;;13.53;55.80;93765.16;5079195;28;20794;-43
2021/04/23 16:45:40;;;;;;;2.70;2.50;;;;;;;13.45;56.28;93772.75;5079181;28;20028;-43
2021/04/23 16:48:06;;;;;;;2.88;2.67;;;;;;;13.50;56.83;93771.09;5077791;28;20047;-43
2021/04/23 16:50:32;;;;;;;3.28;2.85;;;;;;;13.46;55.74;93782.56;5077615;28;20016;-43
2021/04/23 16:52:58;;;;;;;3.33;3.03;;;;;;;13.39;56.64;93782.56;5078558;28;20054;-43
2021/04/23 16:55:24;;;;;;;1.52;1.42;;;;;;;13.35;56.70;93785.75;5080047;28;20113;-42
2021/04/23 16:57:49;;;;;;;2.35;1.90;;;;;;;13.30;56.62;93783.16;5076370;28;20021;-46
2021/04/23 17:00:18;;;;;;;3.50;3.20;;;;;;;13.20;56.80;93796.88;5084998;28;20024;-47
2021/04/23 17:02:44;;;;;;;1.83;1.73;;;;;;;13.02;56.73;93788.91;5084862;28;20055;-46
2021/04/23 17:05:10;;;;;;;3.15;2.22;;;;;;;13.03;57.42;93798.72;5069507;28;20031;-47
2021/04/23 17:07:36;;;;;;;2.03;1.85;;;;;;;13.07;57.22;93801.88;5071752;28;20051;-44
2021/04/23 17:10:07;;;;;;;1.45;1.45;;;;;;;12.99;57.40;93795.56;5078950;28;20489;-46
2021/04/23 17:12:32;;;;;;;1.83;1.73;;;;;;;13.01;57.89;93804.81;5078229;28;20130;-44
2021/04/23 17:14:58;;;;;;;3.13;2.00;;;;;;;12.81;58.46;93806.50;5078734;28;20103;-46
2021/04/23 17:17:23;;;;;;;4.32;3.35;;;;;;;12.68;58.71;93808.69;5077116;28;20044;-45
2021/04/23 17:19:49;;;;;;;2.60;1.98;;;;;;;12.58;58.86;93813.31;5079269;28;20055;-46
2021/04/23 17:22:14;;;;;;;2.85;1.50;;;;;;;12.40;59.43;93812.38;5077996;28;20028;-46
2021/04/23 17:24:40;;;;;;;1.90;1.80;;;;;;;12.38;59.38;93817.00;5070164;28;20190;-45
2021/04/23 17:27:05;;;;;;;2.33;2.15;;;;;;;12.18;59.92;93815.84;5075620;28;20512;-46
2021/04/23 17:29:31;;;;;;;1.67;1.58;;;;;;;12.11;60.23;93820.06;5077065;28;20035;-46
2021/04/23 17:31:57;;;;;;;3.13;2.97;;;;;;;12.02;60.56;93826.13;5077777;28;20030;-45
2021/04/23 17:34:23;;;;;;;1.42;1.33;;;;;;;11.95;60.23;93828.88;5078821;28;20040;-45
2021/04/23 17:36:48;;;;;;;3.80;1.75;;;;;;;11.87;59.46;93830.88;5076780;28;20464;-46
2021/04/23 17:39:14;;;;;;;1.52;1.45;;;;;;;11.76;59.71;93845.06;5074949;28;20488;-46
2021/04/23 17:41:40;;;;;;;2.20;2.05;;;;;;;11.60;60.27;93844.22;5072087;28;20034;-47
2021/04/23 17:44:05;;;;;;;3.33;2.95;;;;;;;11.49;60.74;93847.28;5074955;28;20493;-45
2021/04/23 17:46:31;;;;;;;1.90;1.73;;;;;;;11.51;60.64;93853.00;5076436;28;20043;-45
2021/04/23 17:48:56;;;;;;;1.42;1.38;;;;;;;11.51;60.38;93855.78;5076970;28;20078;-45
2021/04/23 17:51:22;;;;;;;2.75;2.55;;;;;;;11.38;60.77;93855.88;5075419;28;20070;-44
2021/04/23 17:53:47;;;;;;;1.38;1.27;;;;;;;11.21;61.70;93867.41;5077292;28;20412;-44
2021/04/23 17:56:15;;;;;;;1.88;1.70;;;;;;;11.06;62.05;93869.31;5075559;28;20089;-44
2021/04/23 17:58:41;;;;;;;1.70;1.60;;;;;;;10.87;62.78;93864.00;5074852;28;20135;-44
2021/04/23 18:01:07;;;;;;;7.90;3.67;;;;;;;10.84;62.56;93873.38;5077043;28;20115;-45
2021/04/23 18:03:33;;;;;;;4.05;2.60;;;;;;;10.84;63.27;93883.69;5076208;28;20042;-45
2021/04/23 18:05:58;;;;;;;2.55;2.35;;;;;;;10.88;63.07;93893.13;5076067;28;20685;-44
2021/04/23 18:08:24;;;;;;;3.38;2.88;;;;;;;11.00;62.08;93901.88;5074834;28;20064;-44
2021/04/23 18:10:49;;;;;;;3.35;3.08;;;;;;;10.96;62.65;93902.19;5078776;28;20019;-45
2021/04/23 18:13:15;;;;;;;3.72;3.35;;;;;;;11.01;62.17;93908.88;5085232;28;20077;-44
2021/04/23 18:15:41;;;;;;;3.05;2.28;;;;;;;10.93;63.12;93908.81;5076904;28;20078;-46
2021/04/23 18:18:06;;;;;;;1.83;1.73;;;;;;;10.73;63.27;93920.59;5078098;28;20089;-45
2021/04/23 18:20:32;;;;;;;5.03;2.67;;;;;;;10.74;63.30;93916.56;5071543;28;20412;-46
2021/04/23 18:22:58;;;;;;;1.17;0.93;;;;;;;10.89;63.00;93929.78;5077854;28;20020;-44
2021/04/23 18:25:24;;;;;;;3.33;2.75;;;;;;;10.92;62.84;93934.19;5080392;28;20024;-45
2021/04/23 18:27:49;;;;;;;1.42;1.42;;;;;;;10.88;63.82;93933.81;5078207;28;20094;-45
2021/04/23 18:30:15;;;;;;;1.33;1.23;;;;;;;10.59;64.12;93925.44;5076717;28;20020;-46
2021/04/23 18:32:46;;;;;;;2.33;1.92;;;;;;;10.35;65.66;93922.97;5074483;28;20032;-43
2021/04/23 18:35:14;;;;;;;0.80;0.80;;;;;;;10.24;65.87;93916.97;5075711;28;20035;-45
2021/04/23 18:37:40;;;;;;;4.00;2.08;;;;;;;10.26;66.29;93917.19;5072594;28;20094;-44
2021/04/23 18:40:08;;;;;;;2.45;1.88;;;;;;;10.16;66.44;93919.63;5076337;28;20031;-44
2021/04/23 18:42:34;;;;;;;0.77;0.77;;;;;;;10.15;66.69;93936.72;5078017;28;20028;-44
2021/04/23 18:45:01;;;;;;;2.22;1.58;;;;;;;10.37;66.03;93931.47;5074192;28;20594;-46
2021/04/23 18:47:26;;;;;;;2.75;2.55;;;;;;;10.34;66.50;93935.31;5073432;28;20111;-44
2021/04/23 18:49:52;;;;;;;1.42;1.40;;;;;;;10.27;67.19;93937.97;5072640;28;20150;-44
2021/04/23 18:52:17;;;;;;;2.25;2.10;;;;;;;10.28;66.39;93934.69;5070385;28;20043;-45
2021/04/23 18:54:43;;;;;;;3.45;3.08;;;;;;;10.33;66.36;93946.88;5065364;28;20028;-46
2021/04/23 18:57:09;;;;;;;1.45;1.35;;;;;;;10.36;66.20;93941.03;5065039;28;20028;-45
2021/04/23 18:59:34;;;;;;;1.85;1.58;;;;;;;10.45;66.18;93951.63;5084616;28;20032;-44
2021/04/23 19:02:00;;;;;;;4.88;4.25;;;;;;;10.63;65.32;93956.22;5087227;28;20020;-46
2021/04/23 19:04:25;;;;;;;3.05;2.70;;;;;;;10.57;65.34;93941.78;5076208;28;20036;-45
2021/04/23 19:06:50;;;;;;;3.47;3.22;;;;;;;10.49;66.20;93963.06;5066766;28;20060;-45
2021/04/23 19:09:16;;;;;;;7.85;2.38;;;;;;;10.40;66.48;93960.75;5073815;28;20040;-44
2021/04/23 19:11:42;;;;;;;4.00;2.13;;;;;;;10.33;66.98;93961.41;5086380;28;20056;-44
2021/04/23 19:14:07;;;;;;;2.55;2.40;;;;;;;10.24;67.20;93964.63;5086199;28;20111;-45
2021/04/23 19:16:33;;;;;;;2.15;1.95;;;;;;;10.13;67.72;93959.34;5085831;28;20035;-45
2021/04/23 19:18:59;;;;;;;4.55;3.50;;;;;;;10.17;67.36;93964.53;5084122;28;20035;-45
2021/04/23 19:21:27;;;;;;;2.22;1.83;;;;;;;10.14;67.32;93960.06;5086174;28;20579;-45
2021/04/23 19:23:53;;;;;;;1.20;1.20;;;;;;;9.71;68.50;93958.41;5086323;28;20028;-47
2021/04/23 19:26:19;;;;;;;0.70;0.70;;;;;;;9.63;69.09;93970.59;5067973;28;20098;-46
2021/04/23 19:28:45;;;;;;;0.75;0.75;;;;;;;9.62;69.71;93974.63;5068391;28;20028;-46
2021/04/23 19:31:12;;;;;;;3.67;2.28;;;;;;;9.39;70.54;93970.78;5074799;28;20421;-47
2021/04/23 19:33:37;;;;;;;1.27;1.17;;;;;;;9.53;70.43;93975.06;5076847;28;20028;-44
2021/04/23 19:36:03;;;;;;;1.08;0.85;;;;;;;9.65;70.18;93981.84;5076885;28;20086;-47
2021/04/23 19:38:29;;;;;;;3.85;2.00;;;;;;;9.75;69.85;93985.66;5057708;28;20045;-47
2021/04/23 19:40:54;;;;;;;1.33;1.33;;;;;;;9.79;69.74;93975.78;5076423;28;20476;-45
2021/04/23 19:43:20;;;;;;;0.82;0.82;;;;;;;9.83;69.19;93970.69;5074218;28;20023;-45
2021/04/23 19:45:46;;;;;;;9.52;3.58;;;;;;;9.89;68.62;93973.34;5076818;28;20027;-44
2021/04/23 19:48:12;;;;;;;5.38;4.88;;;;;;;9.86;68.83;93979.91;5076336;28;20516;-46
2021/04/23 19:50:38;;;;;;;4.20;3.90;;;;;;;9.97;69.05;93965.91;5072986;28;20408;-45
2021/04/23 19:53:04;;;;;;;3.22;3.03;;;;;;;9.81;69.46;93953.94;5070493;28;20090;-44
2021/04/23 19:55:31;;;;;;;3.35;2.55;;;;;;;9.75;70.37;93952.56;5071018;28;20085;-45
2021/04/23 19:57:56;;;;;;;1.25;1.25;;;;;;;9.80;70.08;93946.19;5069741;28;20040;-45
2021/04/23 20:00:22;;;;;;;1.27;1.17;;;;;;;9.73;70.27;93939.31;5078301;28;20028;-45
2021/04/23 20:02:49;;;;;;;2.08;1.98;;;;;;;9.99;69.79;93951.56;5089785;28;20465;-45
2021/04/23 20:05:14;;;;;;;3.42;3.08;;;;;;;10.10;69.05;93952.09;5090155;28;20526;-44
2021/04/23 20:07:40;;;;;;;3.63;2.47;;;;;;;10.03;69.09;93954.78;5089894;28;20052;-43
2021/04/23 20:10:06;;;;;;;3.80;2.55;;;;;;;9.84;68.90;93955.63;5089161;28;20050;-43
2021/04/23 20:12:32;;;;;;;2.38;1.27;;;;;;;9.75;69.48;93953.31;5089149;28;20044;-46
2021/04/23 20:14:57;;;;;;;3.60;3.30;;;;;;;9.68;69.36;93961.50;5089534;28;20088;-42
2021/04/23 20:17:23;;;;;;;3.03;2.72;;;;;;;9.57;69.89;93958.94;5089672;28;20460;-44
2021/04/23 20:19:49;;;;;;;2.67;2.58;;;;;;;9.42;70.50;93955.97;5070183;28;20055;-44
2021/04/23 20:22:14;;;;;;;2.90;2.53;;;;;;;9.52;69.77;93957.78;5069776;28;20083;-45
2021/04/23 20:24:40;;;;;;;1.23;1.20;;;;;;;9.44;69.17;93956.19;5070284;28;20029;-43
2021/04/23 20:27:05;;;;;;;1.65;1.55;;;;;;;9.39;69.23;93948.75;5083346;28;20074;-47
2021/04/23 20:29:31;;;;;;;1.58;1.48;;;;;;;9.42;68.80;93953.94;5080362;28;20028;-44
2021/04/23 20:31:56;;;;;;;1.98;1.77;;;;;;;9.36;69.15;93955.31;5083019;28;20447;-45
2021/04/23 20:34:23;;;;;;;3.85;2.03;;;;;;;9.07;69.61;93952.28;5080727;28;20024;-44
2021/04/23 20:36:48;;;;;;;1.98;1.65;;;;;;;8.88;70.26;93951.63;5082115;28;21450;-44
2021/04/23 20:39:14;;;;;;;1.73;1.63;;;;;;;8.44;71.66;93952.31;5086046;28;20035;-43
2021/04/23 20:41:39;;;;;;;1.90;1.80;;;;;;;8.31;72.13;93964.00;5091715;28;20036;-44
2021/04/23 20:44:05;;;;;;;0.80;0.80;;;;;;;8.54;71.33;93972.69;5091465;28;20400;-46
2021/04/23 20:46:30;;;;;;;1.42;1.40;;;;;;;8.52;70.98;93974.47;5078214;28;20472;-44
2021/04/23 20:48:56;;;;;;;1.65;1.55;;;;;;;8.21;72.11;93973.84;5071779;28;20024;-49
2021/04/23 20:51:21;;;;;;;3.42;3.08;;;;;;;7.91;72.76;93983.50;5074860;28;20021;-46
2021/04/23 20:53:47;;;;;;;0.85;0.85;;;;;;;7.81;73.19;93985.88;5080908;28;20385;-43
2021/04/23 20:56:12;;;;;;;1.33;1.25;;;;;;;7.83;73.17;93977.84;5079575;28;20107;-45